createdAt,value
2023-02-21T00:00:28.116Z,1.27
2023-02-21T00:01:15.592Z,1.00
2023-02-21T00:02:05.721Z,1.10
2023-02-21T00:02:52.982Z,1.40
2023-02-21T00:03:40.263Z,1.20
2023-02-21T00:04:27.557Z,1.00
2023-02-21T00:05:14.828Z,1.40
2023-02-21T00:06:02.090Z,1.07
2023-02-21T00:06:49.334Z,1.23
2023-02-21T00:07:37.220Z,1.30
2023-02-21T00:08:24.553Z,1.47
2023-02-21T00:09:11.861Z,1.10
2023-02-21T00:09:59.164Z,1.00
2023-02-21T00:10:46.385Z,1.17
2023-02-21T00:11:33.612Z,1.50
2023-02-21T00:12:21.340Z,1.23
2023-02-21T00:13:08.666Z,1.20
2023-02-21T00:13:55.893Z,1.03
2023-02-21T00:14:43.278Z,1.10
2023-02-21T00:15:30.589Z,1.30
2023-02-21T00:16:17.859Z,0.80
2023-02-21T00:17:07.681Z,1.20
2023-02-21T00:17:54.924Z,1.20
2023-02-21T00:18:42.458Z,0.97
2023-02-21T00:19:29.769Z,0.83
2023-02-21T00:20:18.466Z,1.23
2023-02-21T00:21:05.911Z,1.10
2023-02-21T00:21:53.190Z,1.30
2023-02-21T00:22:40.486Z,1.60
2023-02-21T00:23:27.720Z,1.30
2023-02-21T00:24:14.942Z,1.37
2023-02-21T00:25:02.209Z,1.10
2023-02-21T00:25:49.621Z,1.37
2023-02-21T00:26:37.999Z,1.37
2023-02-21T00:27:25.266Z,1.20
2023-02-21T00:28:12.550Z,1.20
2023-02-21T00:29:00.127Z,1.10
2023-02-21T00:29:47.350Z,1.30
2023-02-21T00:30:35.037Z,1.50
2023-02-21T00:31:22.386Z,1.17
2023-02-21T00:32:13.736Z,1.40
2023-02-21T00:33:01.091Z,1.40
2023-02-21T00:33:51.273Z,1.40
2023-02-21T00:34:38.520Z,1.40
2023-02-21T00:35:25.835Z,1.50
2023-02-21T00:36:13.083Z,1.40
2023-02-21T00:37:00.544Z,1.20
2023-02-21T00:37:48.050Z,1.50
2023-02-21T00:38:35.312Z,1.57
2023-02-21T00:39:22.563Z,1.10
2023-02-21T00:40:09.785Z,1.47
2023-02-21T00:40:57.108Z,1.30
2023-02-21T00:41:44.359Z,1.00
2023-02-21T00:42:31.918Z,1.57
2023-02-21T00:43:19.251Z,1.33
2023-02-21T00:44:06.508Z,1.17
2023-02-21T00:44:53.752Z,1.00
2023-02-21T00:45:41.033Z,1.30
2023-02-21T00:46:28.328Z,1.23
2023-02-21T00:47:18.555Z,1.33
2023-02-21T00:48:05.830Z,1.07
2023-02-21T00:48:53.070Z,1.40
2023-02-21T00:49:40.659Z,1.30
2023-02-21T00:50:28.906Z,1.20
2023-02-21T00:51:16.683Z,1.00
2023-02-21T00:52:04.376Z,0.80
2023-02-21T00:52:51.600Z,1.30
2023-02-21T00:53:39.802Z,1.23
2023-02-21T00:54:27.092Z,1.30
2023-02-21T00:55:14.354Z,0.93
2023-02-21T00:56:01.663Z,1.20
2023-02-21T00:56:48.982Z,1.20
2023-02-21T00:57:36.723Z,1.23
2023-02-21T00:58:24.091Z,1.00
2023-02-21T00:59:11.604Z,1.20
2023-02-21T00:59:58.897Z,1.23
2023-02-21T01:00:46.153Z,1.07
2023-02-21T01:01:33.463Z,1.20
2023-02-21T01:02:23.764Z,1.00
2023-02-21T01:03:12.099Z,0.90
2023-02-21T01:03:59.366Z,1.00
2023-02-21T01:04:46.631Z,1.20
2023-02-21T01:05:34.692Z,1.20
2023-02-21T01:06:25.397Z,1.27
2023-02-21T01:07:13.209Z,1.17
2023-02-21T01:08:00.496Z,1.23
2023-02-21T01:08:47.831Z,1.13
2023-02-21T01:09:35.157Z,1.07
2023-02-21T01:10:22.481Z,1.20
2023-02-21T01:11:09.764Z,1.10
2023-02-21T01:11:57.024Z,1.10
2023-02-21T01:12:44.453Z,1.30
2023-02-21T01:13:31.733Z,1.23
2023-02-21T01:14:19.011Z,1.00
2023-02-21T01:15:06.345Z,1.00
2023-02-21T01:15:53.623Z,0.87
2023-02-21T01:16:43.935Z,1.27
2023-02-21T01:17:33.765Z,0.80
2023-02-21T01:18:21.244Z,1.10
2023-02-21T01:19:08.479Z,1.13
2023-02-21T01:19:55.964Z,1.03
2023-02-21T01:20:43.262Z,0.93
2023-02-21T01:21:31.565Z,1.20
2023-02-21T01:22:20.967Z,1.30
2023-02-21T01:23:08.225Z,1.03
2023-02-21T01:23:55.490Z,1.30
2023-02-21T01:24:42.814Z,1.13
2023-02-21T01:25:30.543Z,1.10
2023-02-21T01:26:20.015Z,1.40
2023-02-21T01:27:07.541Z,1.10
2023-02-21T01:27:54.764Z,1.10
2023-02-21T01:28:42.029Z,1.30
2023-02-21T01:29:29.309Z,0.80
2023-02-21T01:30:16.627Z,1.17
2023-02-21T01:31:03.899Z,1.20
2023-02-21T01:31:51.181Z,1.00
2023-02-21T01:32:41.113Z,1.00
2023-02-21T01:33:28.392Z,0.93
2023-02-21T01:34:15.668Z,1.10
2023-02-21T01:35:02.939Z,1.00
2023-02-21T01:35:50.163Z,1.10
2023-02-21T01:36:37.459Z,0.90
2023-02-21T01:37:24.712Z,1.03
2023-02-21T01:38:12.230Z,1.13
2023-02-21T01:38:59.472Z,1.20
2023-02-21T01:39:46.731Z,0.90
2023-02-21T01:40:35.252Z,1.27
2023-02-21T01:41:22.675Z,0.90
2023-02-21T01:42:10.111Z,1.17
2023-02-21T01:42:57.396Z,1.07
2023-02-21T01:43:45.312Z,1.10
2023-02-21T01:44:51.457Z,1.20
2023-02-21T01:46:03.128Z,0.80
2023-02-21T01:46:50.585Z,1.10
2023-02-21T01:47:40.592Z,0.90
2023-02-21T01:48:30.809Z,0.97
2023-02-21T01:49:25.535Z,0.90
2023-02-21T01:50:13.137Z,1.00
2023-02-21T01:51:00.429Z,0.97
2023-02-21T01:51:50.647Z,1.23
2023-02-21T01:52:38.200Z,1.10
2023-02-21T01:53:28.564Z,0.80
2023-02-21T01:54:16.092Z,1.30
2023-02-21T01:55:07.212Z,1.10
2023-02-21T01:55:55.509Z,1.20
2023-02-21T01:56:43.163Z,1.00
2023-02-21T01:57:30.781Z,1.13
2023-02-21T01:58:18.037Z,1.03
2023-02-21T01:59:06.820Z,1.30
2023-02-21T01:59:54.122Z,1.00
2023-02-21T02:00:43.220Z,1.20
2023-02-21T02:01:37.434Z,1.20
2023-02-21T02:02:29.561Z,1.20
2023-02-21T02:03:21.609Z,1.10
2023-02-21T02:04:08.864Z,0.97
2023-02-21T02:04:56.642Z,1.00
2023-02-21T02:05:44.204Z,1.00
2023-02-21T02:06:32.585Z,1.30
2023-02-21T02:07:22.464Z,1.10
2023-02-21T02:08:10.223Z,1.00
2023-02-21T02:09:00.760Z,1.10
2023-02-21T02:09:48.007Z,0.87
2023-02-21T02:10:35.508Z,1.20
2023-02-21T02:11:34.488Z,1.30
2023-02-21T02:12:25.904Z,1.13
2023-02-21T02:13:20.124Z,1.20
2023-02-21T02:14:10.483Z,1.67
2023-02-21T02:15:30.067Z,1.73
2023-02-21T02:16:08.642Z,1.53
2023-02-21T02:16:43.727Z,1.43
2023-02-21T02:17:24.035Z,1.43
2023-02-21T02:18:17.264Z,1.50
2023-02-21T02:19:00.657Z,1.67
2023-02-21T02:20:03.967Z,1.77
2023-02-21T02:21:14.234Z,1.83
2023-02-21T02:22:11.660Z,2.17
2023-02-21T02:23:11.766Z,1.93
2023-02-21T02:24:16.588Z,1.47
2023-02-21T02:25:01.022Z,1.70
2023-02-21T02:25:50.724Z,1.50
2023-02-21T02:26:57.079Z,1.70
2023-02-21T02:27:48.764Z,1.70
2023-02-21T02:28:42.874Z,2.40
2023-02-21T02:29:43.013Z,1.60
2023-02-21T02:30:49.321Z,1.60
2023-02-21T02:31:41.813Z,1.50
2023-02-21T02:32:29.173Z,1.50
2023-02-21T02:33:30.589Z,1.50
2023-02-21T02:34:44.097Z,2.00
2023-02-21T02:35:23.275Z,1.93
2023-02-21T02:35:57.302Z,1.50
2023-02-21T02:36:34.393Z,1.67
2023-02-21T02:37:13.565Z,1.67
2023-02-21T02:37:49.928Z,1.40
2023-02-21T02:38:30.094Z,2.00
2023-02-21T02:39:09.612Z,1.33
2023-02-21T02:39:47.896Z,1.37
2023-02-21T02:40:30.784Z,1.60
2023-02-21T02:41:07.259Z,1.53
2023-02-21T02:41:48.120Z,1.63
2023-02-21T02:42:32.406Z,1.50
2023-02-21T02:43:10.833Z,1.33
2023-02-21T02:43:52.912Z,1.17
2023-02-21T02:44:29.884Z,1.50
2023-02-21T02:45:10.165Z,1.40
2023-02-21T02:45:49.262Z,1.20
2023-02-21T02:46:24.989Z,1.30
2023-02-21T02:47:01.008Z,1.40
2023-02-21T02:47:40.377Z,1.33
2023-02-21T02:48:15.783Z,1.23
2023-02-21T02:48:52.712Z,1.20
2023-02-21T02:49:30.538Z,1.50
2023-02-21T02:50:04.675Z,1.50
2023-02-21T02:50:39.869Z,1.23
2023-02-21T02:51:16.676Z,1.00
2023-02-21T02:51:52.692Z,1.47
2023-02-21T02:52:27.929Z,1.60
2023-02-21T02:53:06.087Z,1.20
2023-02-21T02:53:39.556Z,1.53
2023-02-21T02:54:12.504Z,1.43
2023-02-21T02:54:59.017Z,1.17
2023-02-21T02:55:36.636Z,1.60
2023-02-21T02:56:11.154Z,1.23
2023-02-21T02:56:47.419Z,1.50
2023-02-21T02:57:19.778Z,1.30
2023-02-21T02:57:52.747Z,1.63
2023-02-21T02:58:30.574Z,1.57
2023-02-21T02:59:06.284Z,1.20
2023-02-21T02:59:40.326Z,1.27
2023-02-21T03:00:18.664Z,1.43
2023-02-21T03:00:56.681Z,1.40
2023-02-21T03:02:00.040Z,1.20
2023-02-21T03:02:48.157Z,1.10
2023-02-21T03:03:38.631Z,1.30
2023-02-21T03:04:32.569Z,1.40
2023-02-21T03:05:21.223Z,1.27
2023-02-21T03:06:03.781Z,1.67
2023-02-21T03:06:44.774Z,1.63
2023-02-21T03:07:22.370Z,1.23
2023-02-21T03:07:58.984Z,1.23
2023-02-21T03:08:43.451Z,1.17
2023-02-21T03:09:19.904Z,1.40
2023-02-21T03:10:01.934Z,1.57
2023-02-21T03:10:43.247Z,1.70
2023-02-21T03:11:19.113Z,1.10
2023-02-21T03:11:58.223Z,1.23
2023-02-21T03:12:39.103Z,1.50
2023-02-21T03:13:15.164Z,1.13
2023-02-21T03:13:50.045Z,1.50
2023-02-21T03:14:30.707Z,1.30
2023-02-21T03:15:05.548Z,1.50
2023-02-21T03:15:41.308Z,1.33
2023-02-21T03:16:20.570Z,1.17
2023-02-21T03:16:55.966Z,1.50
2023-02-21T03:17:29.268Z,1.33
2023-02-21T03:18:07.093Z,1.30
2023-02-21T03:18:43.521Z,1.50
2023-02-21T03:19:18.470Z,1.20
2023-02-21T03:19:55.054Z,1.10
2023-02-21T03:20:28.135Z,1.60
2023-02-21T03:21:06.610Z,1.50
2023-02-21T03:21:45.020Z,1.57
2023-02-21T03:22:19.692Z,1.47
2023-02-21T03:22:54.295Z,1.10
2023-02-21T03:23:31.080Z,1.20
2023-02-21T03:24:05.347Z,1.50
2023-02-21T03:24:40.710Z,1.33
2023-02-21T03:25:13.889Z,2.07
2023-02-21T03:25:49.160Z,1.90
2023-02-21T03:26:21.564Z,2.00
2023-02-21T03:27:05.356Z,1.63
2023-02-21T03:27:54.929Z,1.83
2023-02-21T03:28:31.216Z,1.80
2023-02-21T03:29:07.017Z,1.60
2023-02-21T03:29:40.072Z,1.27
2023-02-21T03:30:13.490Z,1.33
2023-02-21T03:30:51.184Z,1.43
2023-02-21T03:31:26.772Z,1.40
2023-02-21T03:32:10.845Z,1.50
2023-02-21T03:32:48.540Z,1.47
2023-02-21T03:33:20.969Z,1.37
2023-02-21T03:33:53.895Z,1.70
2023-02-21T03:34:30.187Z,1.50
2023-02-21T03:35:02.634Z,1.17
2023-02-21T03:35:35.003Z,1.20
2023-02-21T03:36:12.821Z,1.30
2023-02-21T03:36:46.528Z,1.30
2023-02-21T03:37:21.979Z,1.23
2023-02-21T03:37:58.830Z,1.10
2023-02-21T03:38:32.457Z,1.10
2023-02-21T03:39:05.331Z,1.50
2023-02-21T03:39:40.314Z,1.43
2023-02-21T03:40:14.697Z,1.20
2023-02-21T03:40:51.086Z,1.60
2023-02-21T03:41:26.347Z,1.23
2023-02-21T03:41:58.813Z,1.50
2023-02-21T03:42:31.234Z,1.10
2023-02-21T03:43:08.182Z,1.50
2023-02-21T03:43:49.458Z,1.30
2023-02-21T03:44:21.979Z,1.33
2023-02-21T03:44:57.364Z,1.40
2023-02-21T03:45:30.059Z,1.20
2023-02-21T03:46:20.121Z,1.47
2023-02-21T03:46:55.251Z,1.60
2023-02-21T03:47:27.883Z,1.47
2023-02-21T03:48:00.845Z,1.50
2023-02-21T03:48:36.105Z,1.30
2023-02-21T03:49:19.862Z,1.57
2023-02-21T03:49:54.736Z,1.30
2023-02-21T03:50:27.007Z,1.13
2023-02-21T03:50:59.515Z,1.30
2023-02-21T03:51:41.688Z,1.40
2023-02-21T03:52:14.164Z,1.50
2023-02-21T03:52:46.444Z,1.30
2023-02-21T03:53:24.250Z,0.97
2023-02-21T03:53:56.533Z,1.17
2023-02-21T03:54:35.398Z,1.40
2023-02-21T03:55:11.189Z,1.70
2023-02-21T03:55:43.480Z,1.33
2023-02-21T03:56:24.449Z,1.50
2023-02-21T03:57:13.069Z,1.60
2023-02-21T03:57:48.112Z,1.50
2023-02-21T03:58:20.590Z,1.10
2023-02-21T03:58:56.585Z,1.43
2023-02-21T03:59:28.926Z,1.40
2023-02-21T04:00:01.520Z,1.30
2023-02-21T04:00:39.312Z,1.20
2023-02-21T04:01:11.774Z,1.10
2023-02-21T04:01:44.129Z,1.00
2023-02-21T04:02:19.452Z,1.30
2023-02-21T04:02:52.053Z,1.33
2023-02-21T04:03:37.715Z,1.57
2023-02-21T04:04:12.829Z,1.30
2023-02-21T04:04:48.391Z,1.20
2023-02-21T04:05:22.892Z,1.10
2023-02-21T04:05:57.798Z,1.43
2023-02-21T04:06:30.233Z,1.07
2023-02-21T04:07:06.545Z,1.43
2023-02-21T04:07:41.744Z,1.20
2023-02-21T04:08:14.537Z,1.33
2023-02-21T04:08:46.831Z,1.40
2023-02-21T04:09:23.488Z,1.40
2023-02-21T04:09:55.812Z,1.30
2023-02-21T04:10:51.710Z,1.47
2023-02-21T04:11:29.287Z,1.20
2023-02-21T04:12:01.578Z,1.53
2023-02-21T04:12:35.264Z,1.43
2023-02-21T04:13:10.550Z,1.63
2023-02-21T04:13:48.052Z,1.30
2023-02-21T04:14:20.384Z,1.47
2023-02-21T04:14:56.627Z,1.50
2023-02-21T04:15:29.368Z,1.67
2023-02-21T04:16:01.681Z,1.57
2023-02-21T04:16:36.774Z,1.10
2023-02-21T04:17:09.128Z,1.47
2023-02-21T04:17:41.624Z,1.10
2023-02-21T04:18:17.448Z,1.20
2023-02-21T04:18:51.252Z,1.30
2023-02-21T04:19:24.641Z,1.73
2023-02-21T04:19:59.982Z,1.70
2023-02-21T04:20:32.413Z,1.20
2023-02-21T04:21:06.839Z,1.27
2023-02-21T04:21:41.963Z,1.50
2023-02-21T04:22:17.948Z,1.50
2023-02-21T04:23:02.875Z,1.50
2023-02-21T04:23:36.368Z,1.40
2023-02-21T04:24:10.103Z,1.30
2023-02-21T04:24:45.462Z,1.30
2023-02-21T04:25:19.588Z,1.33
2023-02-21T04:25:55.924Z,1.30
2023-02-21T04:26:38.024Z,1.30
2023-02-21T04:27:10.814Z,1.50
2023-02-21T04:27:46.156Z,1.33
2023-02-21T04:28:21.176Z,1.70
2023-02-21T04:28:54.204Z,1.60
2023-02-21T04:29:27.020Z,1.30
2023-02-21T04:30:01.913Z,1.50
2023-02-21T04:30:34.613Z,1.50
2023-02-21T04:31:06.912Z,1.40
2023-02-21T04:31:43.059Z,1.50
2023-02-21T04:32:20.156Z,1.63
2023-02-21T04:32:52.449Z,1.50
2023-02-21T04:33:27.552Z,1.27
2023-02-21T04:34:11.453Z,1.40
2023-02-21T04:34:45.759Z,1.40
2023-02-21T04:35:21.109Z,1.37
2023-02-21T04:35:53.757Z,1.50
2023-02-21T04:36:40.265Z,1.57
2023-02-21T04:37:12.528Z,1.30
2023-02-21T04:37:50.274Z,1.50
2023-02-21T04:38:22.576Z,1.50
2023-02-21T04:38:55.037Z,1.50
2023-02-21T04:39:29.989Z,1.60
2023-02-21T04:40:02.306Z,1.40
2023-02-21T04:40:37.301Z,1.60
2023-02-21T04:41:12.386Z,1.30
2023-02-21T04:41:44.804Z,1.33
2023-02-21T04:42:17.089Z,1.30
2023-02-21T04:42:51.971Z,1.60
2023-02-21T04:43:24.299Z,1.17
2023-02-21T04:43:56.538Z,1.57
2023-02-21T04:44:31.451Z,1.37
2023-02-21T04:45:04.020Z,1.40
2023-02-21T04:45:36.312Z,1.30
2023-02-21T04:46:11.366Z,1.20
2023-02-21T04:46:43.612Z,1.30
2023-02-21T04:47:16.018Z,1.30
2023-02-21T04:47:50.890Z,1.30
2023-02-21T04:48:23.236Z,1.40
2023-02-21T04:48:55.488Z,1.23
2023-02-21T04:49:30.567Z,1.50
2023-02-21T04:50:02.935Z,1.40
2023-02-21T04:50:35.224Z,1.30
2023-02-21T04:51:17.225Z,1.50
2023-02-21T04:51:51.213Z,1.13
2023-02-21T04:52:23.476Z,1.03
2023-02-21T04:53:00.918Z,1.17
2023-02-21T04:53:33.221Z,1.40
2023-02-21T04:54:05.596Z,1.67
2023-02-21T04:54:40.410Z,1.50
2023-02-21T04:55:12.684Z,1.33
2023-02-21T04:55:45.072Z,1.30
2023-02-21T04:56:22.064Z,1.40
2023-02-21T04:56:54.540Z,1.37
2023-02-21T04:57:27.060Z,1.50
2023-02-21T04:58:01.886Z,1.13
2023-02-21T04:58:44.833Z,1.47
2023-02-21T04:59:17.780Z,1.40
2023-02-21T04:59:52.820Z,1.37
2023-02-21T05:00:25.543Z,1.33
2023-02-21T05:00:57.827Z,1.50
2023-02-21T05:01:34.278Z,1.27
2023-02-21T05:02:06.655Z,1.40
2023-02-21T05:02:38.930Z,1.13
2023-02-21T05:03:14.764Z,1.40
2023-02-21T05:03:47.371Z,1.20
2023-02-21T05:04:19.642Z,1.57
2023-02-21T05:04:54.542Z,1.50
2023-02-21T05:05:26.945Z,1.30
2023-02-21T05:05:59.219Z,1.80
2023-02-21T05:06:34.849Z,1.53
2023-02-21T05:07:07.107Z,1.47
2023-02-21T05:07:39.336Z,1.50
2023-02-21T05:08:16.846Z,1.20
2023-02-21T05:08:49.519Z,1.37
2023-02-21T05:09:24.366Z,1.70
2023-02-21T05:09:56.594Z,1.13
2023-02-21T05:10:43.585Z,1.30
2023-02-21T05:11:20.128Z,1.40
2023-02-21T05:11:52.391Z,1.20
2023-02-21T05:12:24.632Z,1.30
2023-02-21T05:12:59.608Z,1.57
2023-02-21T05:13:31.868Z,1.47
2023-02-21T05:14:04.429Z,1.40
2023-02-21T05:14:39.318Z,1.60
2023-02-21T05:15:13.151Z,1.40
2023-02-21T05:15:45.641Z,1.43
2023-02-21T05:16:21.239Z,1.20
2023-02-21T05:16:53.587Z,1.20
2023-02-21T05:17:25.854Z,1.40
2023-02-21T05:18:00.767Z,1.30
2023-02-21T05:18:34.688Z,1.60
2023-02-21T05:19:06.929Z,1.60
2023-02-21T05:19:41.806Z,1.60
2023-02-21T05:20:14.086Z,1.40
2023-02-21T05:20:46.513Z,1.20
2023-02-21T05:21:22.420Z,1.27
2023-02-21T05:21:56.244Z,1.33
2023-02-21T05:22:28.477Z,1.43
2023-02-21T05:23:13.026Z,1.50
2023-02-21T05:23:56.165Z,1.40
2023-02-21T05:24:30.053Z,1.37
2023-02-21T05:25:04.930Z,1.30
2023-02-21T05:25:37.426Z,1.43
2023-02-21T05:26:11.808Z,1.33
2023-02-21T05:26:46.640Z,1.60
2023-02-21T05:27:20.470Z,1.30
2023-02-21T05:27:53.443Z,1.50
2023-02-21T05:28:28.321Z,1.30
2023-02-21T05:29:00.634Z,1.70
2023-02-21T05:29:35.500Z,1.40
2023-02-21T05:30:09.575Z,1.60
2023-02-21T05:30:41.914Z,1.33
2023-02-21T05:31:17.198Z,1.40
2023-02-21T05:31:49.672Z,1.30
2023-02-21T05:32:25.757Z,1.43
2023-02-21T05:32:58.015Z,1.43
2023-02-21T05:33:30.379Z,1.30
2023-02-21T05:34:05.251Z,1.30
2023-02-21T05:34:37.519Z,1.30
2023-02-21T05:35:10.295Z,1.43
2023-02-21T05:35:46.932Z,1.40
2023-02-21T05:36:21.324Z,1.47
2023-02-21T05:36:53.559Z,1.57
2023-02-21T05:37:31.214Z,1.50
2023-02-21T05:38:03.634Z,1.13
2023-02-21T05:38:44.762Z,1.60
2023-02-21T05:39:22.328Z,2.00
2023-02-21T05:39:54.652Z,1.30
2023-02-21T05:40:27.914Z,1.50
2023-02-21T05:41:02.756Z,1.40
2023-02-21T05:41:35.868Z,1.50
2023-02-21T05:42:08.125Z,1.57
2023-02-21T05:42:42.976Z,1.57
2023-02-21T05:43:15.460Z,1.80
2023-02-21T05:43:49.279Z,1.47
2023-02-21T05:44:24.149Z,1.40
2023-02-21T05:44:56.444Z,1.40
2023-02-21T05:45:28.745Z,1.13
2023-02-21T05:46:03.595Z,1.67
2023-02-21T05:46:36.896Z,1.23
2023-02-21T05:47:11.724Z,1.27
2023-02-21T05:47:43.954Z,1.60
2023-02-21T05:48:16.223Z,1.60
2023-02-21T05:48:51.246Z,1.40
2023-02-21T05:49:23.464Z,1.50
2023-02-21T05:49:55.877Z,1.40
2023-02-21T05:50:31.019Z,1.30
2023-02-21T05:51:03.296Z,1.43
2023-02-21T05:51:37.200Z,1.40
2023-02-21T05:52:13.266Z,1.40
2023-02-21T05:52:45.963Z,1.20
2023-02-21T05:53:18.208Z,1.70
2023-02-21T05:53:53.595Z,1.30
2023-02-21T05:54:28.465Z,1.50
2023-02-21T05:55:03.323Z,1.67
2023-02-21T05:55:35.599Z,1.60
2023-02-21T05:56:10.510Z,1.60
2023-02-21T05:56:47.436Z,1.50
2023-02-21T05:57:19.792Z,1.23
2023-02-21T05:57:52.235Z,1.23
2023-02-21T05:58:27.073Z,1.53
2023-02-21T05:58:59.297Z,1.50
2023-02-21T05:59:31.528Z,1.30
2023-02-21T06:00:07.086Z,1.50
2023-02-21T06:00:44.152Z,1.60
2023-02-21T06:01:19.263Z,1.53
2023-02-21T06:01:51.780Z,1.37
2023-02-21T06:02:24.099Z,1.40
2023-02-21T06:03:00.036Z,1.50
2023-02-21T06:03:33.234Z,1.43
2023-02-21T06:04:07.720Z,1.53
2023-02-21T06:04:42.566Z,1.60
2023-02-21T06:05:15.363Z,1.40
2023-02-21T06:05:47.626Z,1.50
2023-02-21T06:06:22.602Z,1.30
2023-02-21T06:06:54.844Z,1.40
2023-02-21T06:07:27.091Z,1.73
2023-02-21T06:08:02.429Z,1.40
2023-02-21T06:08:42.945Z,1.60
2023-02-21T06:09:18.916Z,1.60
2023-02-21T06:09:53.949Z,1.50
2023-02-21T06:10:26.203Z,1.40
2023-02-21T06:11:01.068Z,1.50
2023-02-21T06:11:34.850Z,1.60
2023-02-21T06:12:07.350Z,1.60
2023-02-21T06:12:42.186Z,1.40
2023-02-21T06:13:14.453Z,1.50
2023-02-21T06:13:46.721Z,1.60
2023-02-21T06:14:23.252Z,1.30
2023-02-21T06:14:55.514Z,1.70
2023-02-21T06:15:28.129Z,1.30
2023-02-21T06:16:03.028Z,1.30
2023-02-21T06:16:36.070Z,1.70
2023-02-21T06:17:08.365Z,1.50
2023-02-21T06:17:43.991Z,2.00
2023-02-21T06:18:16.934Z,1.23
2023-02-21T06:18:50.999Z,1.30
2023-02-21T06:19:25.868Z,1.53
2023-02-21T06:19:58.144Z,1.73
2023-02-21T06:20:30.387Z,1.50
2023-02-21T06:21:05.414Z,1.70
2023-02-21T06:21:37.718Z,1.67
2023-02-21T06:22:10.245Z,1.27
2023-02-21T06:22:45.300Z,1.60
2023-02-21T06:23:17.530Z,1.50
2023-02-21T06:23:49.858Z,1.53
2023-02-21T06:24:24.958Z,1.70
2023-02-21T06:25:00.107Z,1.77
2023-02-21T06:25:32.378Z,1.80
2023-02-21T06:26:07.496Z,1.50
2023-02-21T06:26:41.233Z,1.37
2023-02-21T06:27:13.505Z,1.40
2023-02-21T06:27:48.413Z,1.60
2023-02-21T06:28:20.676Z,2.07
2023-02-21T06:28:53.241Z,1.60
2023-02-21T06:29:28.115Z,2.00
2023-02-21T06:30:00.396Z,1.90
2023-02-21T06:30:32.655Z,1.73
2023-02-21T06:31:08.395Z,1.80
2023-02-21T06:31:40.766Z,1.40
2023-02-21T06:32:13.146Z,1.40
2023-02-21T06:32:48.043Z,1.90
2023-02-21T06:33:20.279Z,1.67
2023-02-21T06:33:52.627Z,1.57
2023-02-21T06:34:28.221Z,1.63
2023-02-21T06:35:00.485Z,1.80
2023-02-21T06:35:32.716Z,1.90
2023-02-21T06:36:08.819Z,1.90
2023-02-21T06:36:41.059Z,1.93
2023-02-21T06:37:13.323Z,2.10
2023-02-21T06:37:48.149Z,1.83
2023-02-21T06:38:20.401Z,1.87
2023-02-21T06:38:55.176Z,2.00
2023-02-21T06:39:30.079Z,2.00
2023-02-21T06:40:05.496Z,1.80
2023-02-21T06:40:37.724Z,1.87
2023-02-21T06:41:12.924Z,2.40
2023-02-21T06:41:45.402Z,1.90
2023-02-21T06:42:18.305Z,2.00
2023-02-21T06:42:53.132Z,2.00
2023-02-21T06:43:25.351Z,2.00
2023-02-21T06:43:58.855Z,2.27
2023-02-21T06:44:33.979Z,1.80
2023-02-21T06:45:06.670Z,1.90
2023-02-21T06:45:38.923Z,1.80
2023-02-21T06:46:13.832Z,2.10
2023-02-21T06:46:46.733Z,1.93
2023-02-21T06:47:19.029Z,2.00
2023-02-21T06:47:53.872Z,1.50
2023-02-21T06:48:26.231Z,2.00
2023-02-21T06:49:01.484Z,1.90
2023-02-21T06:49:33.713Z,1.50
2023-02-21T06:50:09.192Z,2.20
2023-02-21T06:50:45.026Z,1.87
2023-02-21T06:51:17.897Z,1.93
2023-02-21T06:51:50.165Z,1.90
2023-02-21T06:52:25.032Z,1.60
2023-02-21T06:52:57.299Z,1.60
2023-02-21T06:53:29.552Z,1.80
2023-02-21T06:54:04.401Z,1.63
2023-02-21T06:54:36.866Z,1.70
2023-02-21T06:55:11.691Z,1.77
2023-02-21T06:55:43.937Z,1.80
2023-02-21T06:56:18.843Z,1.90
2023-02-21T06:56:51.187Z,1.40
2023-02-21T06:57:26.084Z,1.70
2023-02-21T06:57:58.316Z,1.37
2023-02-21T06:58:30.585Z,1.43
2023-02-21T06:59:05.868Z,1.60
2023-02-21T06:59:38.087Z,1.60
2023-02-21T07:00:11.953Z,1.83
2023-02-21T07:00:46.921Z,1.37
2023-02-21T07:01:19.360Z,1.40
2023-02-21T07:01:54.234Z,1.47
2023-02-21T07:02:26.597Z,1.30
2023-02-21T07:02:58.937Z,1.73
2023-02-21T07:03:33.787Z,1.80
2023-02-21T07:04:06.115Z,1.43
2023-02-21T07:04:38.939Z,1.77
2023-02-21T07:05:16.243Z,1.87
2023-02-21T07:05:48.544Z,1.50
2023-02-21T07:06:20.977Z,1.50
2023-02-21T07:06:56.026Z,1.40
2023-02-21T07:07:28.266Z,1.60
2023-02-21T07:08:00.612Z,1.50
2023-02-21T07:08:35.462Z,1.80
2023-02-21T07:09:07.793Z,1.80
2023-02-21T07:09:40.107Z,1.47
2023-02-21T07:10:18.087Z,1.47
2023-02-21T07:10:50.663Z,1.60
2023-02-21T07:11:22.995Z,2.20
2023-02-21T07:11:57.834Z,1.67
2023-02-21T07:12:30.080Z,1.40
2023-02-21T07:13:02.341Z,1.67
2023-02-21T07:13:37.344Z,1.63
2023-02-21T07:14:11.492Z,1.53
2023-02-21T07:14:43.732Z,1.63
2023-02-21T07:15:18.586Z,1.60
2023-02-21T07:15:50.888Z,1.97
2023-02-21T07:16:26.285Z,1.60
2023-02-21T07:16:58.556Z,1.50
2023-02-21T07:17:30.813Z,1.80
2023-02-21T07:18:05.691Z,1.90
2023-02-21T07:18:38.184Z,1.50
2023-02-21T07:19:50.735Z,1.60
2023-02-21T07:20:22.973Z,1.93
2023-02-21T07:20:55.581Z,1.60
2023-02-21T07:21:30.905Z,1.70
2023-02-21T07:22:03.445Z,1.50
2023-02-21T07:22:38.318Z,1.60
2023-02-21T07:23:10.762Z,1.60
2023-02-21T07:23:43.963Z,1.70
2023-02-21T07:24:18.887Z,1.63
2023-02-21T07:24:51.112Z,1.80
2023-02-21T07:25:26.187Z,1.80
2023-02-21T07:26:01.051Z,2.00
2023-02-21T07:26:33.470Z,1.67
2023-02-21T07:27:05.713Z,1.70
2023-02-21T07:27:40.532Z,1.50
2023-02-21T07:28:12.823Z,1.67
2023-02-21T07:28:47.405Z,1.57
2023-02-21T07:29:22.302Z,1.63
2023-02-21T07:29:54.580Z,1.50
2023-02-21T07:30:26.840Z,1.53
2023-02-21T07:31:02.105Z,1.70
2023-02-21T07:31:36.767Z,1.60
2023-02-21T07:32:11.662Z,1.40
2023-02-21T07:33:19.861Z,1.50
2023-02-21T07:33:52.084Z,1.90
2023-02-21T07:34:26.962Z,1.43
2023-02-21T07:34:59.200Z,1.60
2023-02-21T07:35:32.580Z,1.80
2023-02-21T07:36:08.102Z,1.83
2023-02-21T07:36:40.477Z,1.70
2023-02-21T07:37:12.804Z,1.70
2023-02-21T07:37:47.698Z,1.63
2023-02-21T07:38:21.061Z,2.40
2023-02-21T07:38:56.007Z,3.23
2023-02-21T07:39:28.327Z,5.10
2023-02-21T07:40:00.672Z,6.27
2023-02-21T07:40:38.208Z,5.03
2023-02-21T07:41:10.495Z,5.80
2023-02-21T07:41:42.922Z,3.50
2023-02-21T07:42:17.918Z,4.17
2023-02-21T07:42:51.301Z,3.00
2023-02-21T07:43:23.545Z,4.00
2023-02-21T07:43:58.395Z,3.47
2023-02-21T07:44:30.711Z,3.17
2023-02-21T07:45:03.391Z,2.43
2023-02-21T07:45:38.279Z,2.53
2023-02-21T07:46:11.614Z,2.03
2023-02-21T07:46:46.637Z,2.40
2023-02-21T07:47:21.529Z,2.17
2023-02-21T07:47:53.783Z,2.33
2023-02-21T07:48:26.159Z,2.43
2023-02-21T07:49:00.999Z,2.60
2023-02-21T07:49:38.532Z,2.37
2023-02-21T07:50:10.948Z,3.20
2023-02-21T07:50:46.409Z,2.90
2023-02-21T07:51:18.786Z,3.07
2023-02-21T07:51:53.880Z,2.43
2023-02-21T07:52:26.138Z,2.77
2023-02-21T07:52:59.859Z,2.90
2023-02-21T07:53:34.697Z,2.73
2023-02-21T07:54:07.166Z,2.97
2023-02-21T07:54:39.419Z,3.07
2023-02-21T07:55:14.677Z,3.10
2023-02-21T07:55:49.591Z,2.90
2023-02-21T07:56:24.493Z,3.27
2023-02-21T07:56:56.753Z,3.80
2023-02-21T07:57:29.013Z,3.67
2023-02-21T07:58:03.847Z,3.90
2023-02-21T07:58:37.532Z,3.70
2023-02-21T07:59:12.415Z,3.47
2023-02-21T07:59:45.096Z,3.70
2023-02-21T08:00:17.973Z,3.70
2023-02-21T08:00:52.857Z,3.40
2023-02-21T08:01:26.775Z,4.20
2023-02-21T08:02:02.667Z,4.80
2023-02-21T08:02:34.916Z,4.80
2023-02-21T08:03:09.878Z,5.30
2023-02-21T08:03:42.245Z,6.00
2023-02-21T08:04:15.060Z,6.03
2023-02-21T08:04:53.498Z,5.97
2023-02-21T08:05:25.803Z,4.87
2023-02-21T08:05:58.540Z,4.63
2023-02-21T08:06:33.455Z,5.30
2023-02-21T08:07:06.127Z,4.60
2023-02-21T08:07:40.956Z,4.87
2023-02-21T08:08:14.816Z,4.80
2023-02-21T08:08:49.639Z,4.10
2023-02-21T08:09:22.871Z,4.07
2023-02-21T08:09:55.156Z,4.10
2023-02-21T08:10:30.930Z,3.90
2023-02-21T08:11:06.467Z,4.03
2023-02-21T08:11:41.580Z,4.20
2023-02-21T08:12:13.811Z,4.00
2023-02-21T08:12:46.085Z,4.43
2023-02-21T08:13:20.922Z,4.33
2023-02-21T08:13:53.267Z,4.40
2023-02-21T08:14:25.514Z,4.00
2023-02-21T08:15:00.372Z,3.83
2023-02-21T08:15:32.625Z,4.70
2023-02-21T08:16:07.967Z,4.00
2023-02-21T08:16:40.261Z,4.53
2023-02-21T08:17:15.448Z,4.77
2023-02-21T08:17:48.565Z,4.47
2023-02-21T08:18:24.577Z,4.20
2023-02-21T08:18:59.564Z,4.03
2023-02-21T08:19:31.839Z,4.33
2023-02-21T08:20:06.784Z,4.60
2023-02-21T08:20:41.608Z,4.30
2023-02-21T08:21:14.211Z,4.33
2023-02-21T08:21:49.717Z,4.07
2023-02-21T08:22:22.115Z,4.43
2023-02-21T08:22:54.360Z,4.30
2023-02-21T08:23:29.243Z,4.10
2023-02-21T08:24:01.519Z,3.63
2023-02-21T08:24:36.377Z,4.27
2023-02-21T08:25:10.728Z,4.47
2023-02-21T08:25:45.836Z,4.13
2023-02-21T08:26:21.957Z,4.00
2023-02-21T08:26:56.789Z,3.43
2023-02-21T08:27:29.017Z,3.77
2023-02-21T08:28:01.241Z,4.13
2023-02-21T08:28:37.441Z,3.93
2023-02-21T08:29:09.688Z,3.70
2023-02-21T08:29:44.512Z,4.47